Time;durP1;ratioP1;P1;durP2;ratioP2;P2;SDS_P1;SDS_P2;PMS_P1;PMS_P2;Temp;Humidity;BMP_temperature;BMP_pressure;BME280_temperature;BME280_humidity;BME280_pressure;Samples;Min_cycle;Max_cycle;Signal;HPM_P1;HPM_P2
2019/11/13 00:01:35;;;;;;;5.4;3.8;;;;;;;;;;;;;
2019/11/13 00:04:00;;;;;;;20.8;7.7;;;;;;;;;;;;;
2019/11/13 00:06:33;;;;;;;24.1;8.5;;;;;;;;;;;;;
2019/11/13 00:08:55;;;;;;;25.4;8.9;;;;;;;;;;;;;
2019/11/13 00:11:19;;;;;;;17.1;9.7;;;;;;;;;;;;;
2019/11/13 00:13:47;;;;;;;10.4;6.8;;;;;;;;;;;;;
2019/11/13 00:16:14;;;;;;;16.3;7.7;;;;;;;;;;;;;
2019/11/13 00:18:35;;;;;;;17.4;8.7;;;;;;;;;;;;;
2019/11/13 00:21:01;;;;;;;15.4;8.3;;;;;;;;;;;;;
2019/11/13 00:23:27;;;;;;;15.5;6.8;;;;;;;;;;;;;
2019/11/13 00:25:54;;;;;;;16.1;7.4;;;;;;;;;;;;;
2019/11/13 00:28:17;;;;;;;16.3;9.6;;;;;;;;;;;;;
2019/11/13 00:30:43;;;;;;;13.6;9;;;;;;;;;;;;;
2019/11/13 00:33:10;;;;;;;13.4;8.7;;;;;;;;;;;;;
2019/11/13 00:35:34;;;;;;;13.9;9.9;;;;;;;;;;;;;
2019/11/13 00:38:06;;;;;;;14;9.1;;;;;;;;;;;;;
2019/11/13 00:40:29;;;;;;;15.3;10.8;;;;;;;;;;;;;
2019/11/13 00:42:52;;;;;;;13.6;9.7;;;;;;;;;;;;;
2019/11/13 00:45:16;;;;;;;14.7;10.3;;;;;;;;;;;;;
2019/11/13 00:47:47;;;;;;;14.3;11;;;;;;;;;;;;;
2019/11/13 00:50:09;;;;;;;17;11.3;;;;;;;;;;;;;
2019/11/13 00:52:35;;;;;;;13.1;9.8;;;;;;;;;;;;;
2019/11/13 00:54:59;;;;;;;12.4;9.8;;;;;;;;;;;;;
2019/11/13 00:57:31;;;;;;;11.2;7.9;;;;;;;;;;;;;
2019/11/13 00:59:52;;;;;;;8.5;7.4;;;;;;;;;;;;;
2019/11/13 01:02:15;;;;;;;7.3;6.3;;;;;;;;;;;;;
2019/11/13 01:04:40;;;;;;;6.9;5.4;;;;;;;;;;;;;
2019/11/13 01:07:07;;;;;;;25.4;10.2;;;;;;;;;;;;;
2019/11/13 01:09:32;;;;;;;10.2;8.2;;;;;;;;;;;;;
2019/11/13 01:11:59;;;;;;;10.7;7.4;;;;;;;;;;;;;
2019/11/13 01:14:31;;;;;;;11.7;9.3;;;;;;;;;;;;;
2019/11/13 01:17:02;;;;;;;13;9;;;;;;;;;;;;;
2019/11/13 01:19:28;;;;;;;21.4;10.8;;;;;;;;;;;;;
2019/11/13 01:21:57;;;;;;;11.3;9.4;;;;;;;;;;;;;
2019/11/13 01:24:22;;;;;;;12.3;9.4;;;;;;;;;;;;;
2019/11/13 01:26:51;;;;;;;13.7;9.6;;;;;;;;;;;;;
2019/11/13 01:29:16;;;;;;;11.9;10;;;;;;;;;;;;;
2019/11/13 01:31:37;;;;;;;11.9;10.3;;;;;;;;;;;;;
2019/11/13 01:34:12;;;;;;;11.4;9.4;;;;;;;;;;;;;
2019/11/13 01:36:32;;;;;;;11.1;9.1;;;;;;;;;;;;;
2019/11/13 01:38:58;;;;;;;14.2;9.6;;;;;;;;;;;;;
2019/11/13 01:41:22;;;;;;;13.4;10.8;;;;;;;;;;;;;
2019/11/13 01:43:50;;;;;;;11.9;10.3;;;;;;;;;;;;;
2019/11/13 01:46:13;;;;;;;12.3;10.7;;;;;;;;;;;;;
2019/11/13 01:48:39;;;;;;;12.5;10.2;;;;;;;;;;;;;
2019/11/13 01:51:09;;;;;;;11.4;9.8;;;;;;;;;;;;;
2019/11/13 01:53:33;;;;;;;11.4;10.2;;;;;;;;;;;;;
2019/11/13 01:56:49;;;;;;;12.9;10.5;;;;;;;;;;;;;
2019/11/13 01:58:28;;;;;;;11.3;10.2;;;;;;;;;;;;;
2019/11/13 02:06:20;;;;;;;11.2;10.1;;;;;;;;;;;;;
2019/11/13 02:08:45;;;;;;;12.9;11.5;;;;;;;;;;;;;
2019/11/13 02:11:10;;;;;;;12.8;11.3;;;;;;;;;;;;;
2019/11/13 02:13:38;;;;;;;13.8;12.1;;;;;;;;;;;;;
2019/11/13 02:16:04;;;;;;;13.4;11.8;;;;;;;;;;;;;
2019/11/13 02:18:27;;;;;;;13.3;11.9;;;;;;;;;;;;;
2019/11/13 02:20:53;;;;;;;13.5;12.1;;;;;;;;;;;;;
2019/11/13 02:23:19;;;;;;;15.2;12.2;;;;;;;;;;;;;
2019/11/13 02:25:47;;;;;;;15.3;12.6;;;;;;;;;;;;;
2019/11/13 02:28:09;;;;;;;13.9;12.3;;;;;;;;;;;;;
2019/11/13 02:30:36;;;;;;;14.2;12.7;;;;;;;;;;;;;
2019/11/13 02:32:59;;;;;;;16.5;13.9;;;;;;;;;;;;;
2019/11/13 02:35:33;;;;;;;15.3;13.4;;;;;;;;;;;;;
2019/11/13 02:37:50;;;;;;;15.6;13.5;;;;;;;;;;;;;
2019/11/13 02:40:15;;;;;;;14.4;12.9;;;;;;;;;;;;;
2019/11/13 02:42:39;;;;;;;14.5;12.9;;;;;;;;;;;;;
2019/11/13 02:45:08;;;;;;;15.5;13.1;;;;;;;;;;;;;
2019/11/13 02:47:32;;;;;;;13.9;12.4;;;;;;;;;;;;;
2019/11/13 02:49:58;;;;;;;15.5;13.3;;;;;;;;;;;;;
2019/11/13 02:52:26;;;;;;;16.2;14.2;;;;;;;;;;;;;
2019/11/13 02:54:49;;;;;;;15.9;13.6;;;;;;;;;;;;;
2019/11/13 02:57:13;;;;;;;17.2;14.3;;;;;;;;;;;;;
2019/11/13 02:59:44;;;;;;;15.8;14.1;;;;;;;;;;;;;
2019/11/13 03:02:08;;;;;;;17.1;14;;;;;;;;;;;;;
2019/11/13 03:04:32;;;;;;;21.9;14.8;;;;;;;;;;;;;
2019/11/13 03:06:58;;;;;;;18.6;15;;;;;;;;;;;;;
2019/11/13 03:09:33;;;;;;;19;15.2;;;;;;;;;;;;;
2019/11/13 03:11:49;;;;;;;19;13.8;;;;;;;;;;;;;
2019/11/13 03:14:13;;;;;;;20.6;13.6;;;;;;;;;;;;;
2019/11/13 03:16:38;;;;;;;17.4;14.6;;;;;;;;;;;;;
2019/11/13 03:19:06;;;;;;;17.1;14.5;;;;;;;;;;;;;
2019/11/13 03:21:29;;;;;;;21.8;15.8;;;;;;;;;;;;;
2019/11/13 03:24:00;;;;;;;16.3;14.3;;;;;;;;;;;;;
2019/11/13 03:26:24;;;;;;;17;13.8;;;;;;;;;;;;;
2019/11/13 03:28:50;;;;;;;16.6;14.1;;;;;;;;;;;;;
2019/11/13 03:31:13;;;;;;;15.2;13.4;;;;;;;;;;;;;
2019/11/13 03:33:39;;;;;;;16.1;13.3;;;;;;;;;;;;;
2019/11/13 03:36:05;;;;;;;10.7;9.6;;;;;;;;;;;;;
2019/11/13 03:38:30;;;;;;;8.6;7.7;;;;;;;;;;;;;
2019/11/13 03:40:55;;;;;;;10.4;9.3;;;;;;;;;;;;;
2019/11/13 03:43:23;;;;;;;8.9;8;;;;;;;;;;;;;
2019/11/13 03:45:45;;;;;;;9.4;8.4;;;;;;;;;;;;;
2019/11/13 03:48:17;;;;;;;8.5;7.7;;;;;;;;;;;;;
2019/11/13 03:50:42;;;;;;;10.3;8.4;;;;;;;;;;;;;
2019/11/13 03:53:08;;;;;;;9.9;8.9;;;;;;;;;;;;;
2019/11/13 03:55:31;;;;;;;9.8;8.8;;;;;;;;;;;;;
2019/11/13 03:58:00;;;;;;;12.9;10.6;;;;;;;;;;;;;
2019/11/13 04:02:30;;;;;;;16.1;14.4;;;;;;;3.31;86.29883;924.6252;;;;
2019/11/13 04:04:57;;;;;;;17.1;14.4;;;;;;;3.28;86.55176;924.6451;;;;
2019/11/13 04:07:26;;;;;;;14.9;13.3;;;;;;;3.22;86.87695;924.631;;;;
2019/11/13 04:09:53;;;;;;;16;14.3;;;;;;;3.2;86.81738;924.5854;;;;
2019/11/13 04:12:17;;;;;;;15.2;12.6;;;;;;;3.1;87.16699;924.6022;;;;
2019/11/13 04:14:42;;;;;;;16;13.8;;;;;;;3.12;87.27246;924.5756;;;;
2019/11/13 04:17:16;;;;;;;14.9;12.8;;;;;;;3.11;87.50586;924.6361;;;;
2019/11/13 04:20:14;;;;;;;16.8;13.4;;;;;;;3.08;87.55664;924.4871;;;;
2019/11/13 04:22:37;;;;;;;19.5;14.2;;;;;;;3.07;87.53027;924.5875;;;;
2019/11/13 04:25:06;;;;;;;20;13.7;;;;;;;3.08;87.54492;924.532;;;;
2019/11/13 04:27:36;;;;;;;21.5;13.7;;;;;;;3.18;87.05859;924.5058;;;;
2019/11/13 04:30:12;;;;;;;21.1;13.9;;;;;;;3.25;86.78125;924.4844;;;;
2019/11/13 04:32:41;;;;;;;17.1;12.8;;;;;;;3.29;86.6582;924.5076;;;;
2019/11/13 04:35:14;;;;;;;20.3;13.5;;;;;;;3.24;86.66992;924.5148;;;;
2019/11/13 04:37:39;;;;;;;19.3;13.1;;;;;;;3.25;86.84863;924.4897;;;;
2019/11/13 04:40:07;;;;;;;18.1;13.3;;;;;;;3.24;86.84863;924.3096;;;;
2019/11/13 04:42:32;;;;;;;20.8;14.5;;;;;;;3.26;86.60547;924.4578;;;;
2019/11/13 04:44:58;;;;;;;22.9;16.2;;;;;;;3.32;86.71777;924.3759;;;;
2019/11/13 04:47:28;;;;;;;19.4;14.8;;;;;;;3.32;86.73047;924.3759;;;;
2019/11/13 04:50:08;;;;;;;16.7;11.5;;;;;;;3.37;86.22363;924.3649;;;;
2019/11/13 04:52:32;;;;;;;15.6;10.7;;;;;;;3.35;86.12988;924.3826;;;;
2019/11/13 04:55:04;;;;;;;19.6;11.5;;;;;;;3.33;86.13574;924.4147;;;;
2019/11/13 04:57:26;;;;;;;20.8;11.8;;;;;;;3.3;86.36621;924.3276;;;;
2019/11/13 04:59:53;;;;;;;18.9;13.9;;;;;;;3.3;86.41113;924.3292;;;;
2019/11/13 05:02:26;;;;;;;18.4;12.6;;;;;;;3.34;86.28516;924.3842;;;;
2019/11/13 05:04:58;;;;;;;13.5;10.3;;;;;;;3.29;86.28711;924.4086;;;;
2019/11/13 05:07:22;;;;;;;11.4;10;;;;;;;3.19;86.88281;924.3533;;;;
2019/11/13 05:10:15;;;;;;;12.7;10.4;;;;;;;3.13;87.18262;924.3777;;;;
2019/11/13 05:12:40;;;;;;;14.3;11.7;;;;;;;3.11;87.38281;924.4073;;;;
2019/11/13 05:17:44;;;;;;;14.6;10.9;;;;;;;3.16;87.11328;924.4246;;;;
2019/11/13 05:20:16;;;;;;;13.1;10.6;;;;;;;3.22;87.05664;924.3989;;;;
2019/11/13 05:22:47;;;;;;;13.6;11.4;;;;;;;3.24;86.78027;924.385;;;;
2019/11/13 05:25:19;;;;;;;15.5;11.9;;;;;;;3.2;86.90723;924.3622;;;;
2019/11/13 05:27:46;;;;;;;15.5;11.7;;;;;;;3.18;87.11523;924.3375;;;;
2019/11/13 05:30:18;;;;;;;14.8;11.3;;;;;;;3.19;87.20801;924.399;;;;
2019/11/13 05:32:51;;;;;;;15;11.4;;;;;;;3.23;87.23633;924.3739;;;;
2019/11/13 05:35:22;;;;;;;13.7;10.4;;;;;;;3.23;87.31641;924.2874;;;;
2019/11/13 05:37:44;;;;;;;13.1;9.8;;;;;;;3.18;87.62207;924.4249;;;;
2019/11/13 05:40:15;;;;;;;13.9;10;;;;;;;3.25;87.0957;924.4379;;;;
2019/11/13 05:42:47;;;;;;;13.3;9.6;;;;;;;3.27;87.09082;924.4956;;;;
2019/11/13 05:45:10;;;;;;;13.8;9.7;;;;;;;3.29;86.83594;924.473;;;;
2019/11/13 05:47:35;;;;;;;16.2;10.9;;;;;;;3.31;86.88281;924.4741;;;;
2019/11/13 05:50:00;;;;;;;15.9;11;;;;;;;3.31;86.68262;924.4875;;;;
2019/11/13 05:52:34;;;;;;;15.6;10.6;;;;;;;3.29;86.73438;924.4966;;;;
2019/11/13 05:55:04;;;;;;;26.5;15.4;;;;;;;3.36;86.62598;924.5488;;;;
2019/11/13 05:57:29;;;;;;;23.7;14.9;;;;;;;3.36;86.52539;924.5;;;;
2019/11/13 06:00:02;;;;;;;22.7;14.2;;;;;;;3.36;86.28906;924.5472;;;;
2019/11/13 06:02:27;;;;;;;18.4;12.4;;;;;;;3.43;86.13574;924.58;;;;
2019/11/13 06:04:54;;;;;;;17.2;11;;;;;;;3.45;86.15039;924.592;;;;
2019/11/13 06:07:20;;;;;;;16.3;10.9;;;;;;;3.46;86.17285;924.5834;;;;
2019/11/13 06:09:52;;;;;;;14.4;10.5;;;;;;;3.41;86.35449;924.6897;;;;
2019/11/13 06:12:23;;;;;;;14.5;11.1;;;;;;;3.42;86.58105;924.6796;;;;
2019/11/13 06:14:49;;;;;;;14.2;11.1;;;;;;;3.43;86.58301;924.7089;;;;
2019/11/13 06:17:20;;;;;;;15.1;10.8;;;;;;;3.44;86.41797;924.7453;;;;
2019/11/13 06:19:45;;;;;;;17.3;12.4;;;;;;;3.44;85.94434;924.7271;;;;
2019/11/13 06:22:12;;;;;;;16.3;11.2;;;;;;;3.45;86.04785;924.7319;;;;
2019/11/13 06:24:36;;;;;;;17.8;11.7;;;;;;;3.48;85.88574;924.7938;;;;
2019/11/13 06:27:02;;;;;;;15.9;10.7;;;;;;;3.49;85.65234;924.7522;;;;
2019/11/13 06:29:34;;;;;;;14.7;11.4;;;;;;;3.48;85.61621;924.7466;;;;
2019/11/13 06:31:57;;;;;;;17.1;11.9;;;;;;;3.48;85.83008;924.7151;;;;
2019/11/13 06:34:27;;;;;;;15.7;11.7;;;;;;;3.49;85.75293;924.8113;;;;
2019/11/13 06:36:52;;;;;;;14.7;11.3;;;;;;;3.51;85.79102;924.7626;;;;
2019/11/13 06:39:25;;;;;;;14.8;10.3;;;;;;;3.56;85.39551;924.8082;;;;
2019/11/13 06:41:54;;;;;;;13.2;8.6;;;;;;;3.45;85.67871;924.8477;;;;
2019/11/13 06:44:20;;;;;;;15.7;9.9;;;;;;;3.4;85.98242;924.8978;;;;
2019/11/13 06:46:51;;;;;;;16.5;11.2;;;;;;;3.39;85.97852;924.9086;;;;
2019/11/13 06:49:23;;;;;;;21.3;13;;;;;;;3.38;86.18066;924.9565;;;;
2019/11/13 06:51:47;;;;;;;21.1;12.1;;;;;;;3.37;86.3916;924.9752;;;;
2019/11/13 06:54:19;;;;;;;16.6;11.9;;;;;;;3.4;86.27441;925.0591;;;;
2019/11/13 06:56:44;;;;;;;25;19.3;;;;;;;3.44;86.12402;925.0253;;;;
2019/11/13 06:59:08;;;;;;;63.9;44.8;;;;;;;3.43;86.06641;925.0661;;;;
2019/11/13 07:01:39;;;;;;;58.3;41.2;;;;;;;3.41;86.02734;925.0697;;;;
2019/11/13 07:04:01;;;;;;;48.7;34.8;;;;;;;3.3;86.39941;925.0427;;;;
2019/11/13 07:06:38;;;;;;;37.4;27.5;;;;;;;3.23;86.74414;925.1187;;;;
2019/11/13 07:09:10;;;;;;;34.2;24.3;;;;;;;3.23;86.71094;925.0511;;;;
2019/11/13 07:11:31;;;;;;;25.4;18.7;;;;;;;3.23;86.7334;925.1227;;;;
2019/11/13 07:13:54;;;;;;;27.1;19.7;;;;;;;3.12;87.19336;925.1434;;;;
2019/11/13 07:16:25;;;;;;;25.4;18.2;;;;;;;3.05;87.65039;925.1015;;;;
2019/11/13 07:19:06;;;;;;;20.8;15.2;;;;;;;3.11;87.70801;925.1646;;;;
2019/11/13 07:21:28;;;;;;;23;15.8;;;;;;;3.19;87.33203;925.1579;;;;
2019/11/13 07:23:58;;;;;;;22.8;15.2;;;;;;;3.19;87.24219;925.1744;;;;
2019/11/13 07:26:27;;;;;;;22.7;16;;;;;;;3.2;87.22168;925.1887;;;;
2019/11/13 07:29:02;;;;;;;24.3;16.7;;;;;;;3.18;87.30762;925.2278;;;;
2019/11/13 07:31:26;;;;;;;20.2;14;;;;;;;3.24;87.375;925.2737;;;;
2019/11/13 07:33:58;;;;;;;19.8;14.6;;;;;;;3.31;86.89746;925.2977;;;;
2019/11/13 07:36:28;;;;;;;22.3;14.8;;;;;;;3.31;86.49121;925.2292;;;;
2019/11/13 07:38:57;;;;;;;21.9;15.6;;;;;;;3.31;86.42578;925.3088;;;;
2019/11/13 07:41:27;;;;;;;22.2;15.5;;;;;;;3.38;86.32422;925.2586;;;;
2019/11/13 07:43:57;;;;;;;17;12.9;;;;;;;3.41;86.09668;925.3467;;;;
2019/11/13 07:46:24;;;;;;;18.1;12.9;;;;;;;3.4;86.09473;925.3313;;;;
2019/11/13 07:48:52;;;;;;;20.2;14.3;;;;;;;3.46;85.82617;925.3372;;;;
2019/11/13 07:51:20;;;;;;;21.7;15.8;;;;;;;3.59;85.35547;925.3343;;;;
2019/11/13 07:53:50;;;;;;;25.7;17.1;;;;;;;3.68;85.20703;925.3328;;;;
2019/11/13 07:56:23;;;;;;;21.2;14.2;;;;;;;3.78;84.7666;925.383;;;;
2019/11/13 07:58:46;;;;;;;18.6;12.4;;;;;;;3.75;84.65039;925.455;;;;
2019/11/13 08:01:11;;;;;;;16.8;11.1;;;;;;;3.7;85.27832;925.429;;;;
2019/11/13 08:03:40;;;;;;;11.3;8.2;;;;;;;3.69;84.9502;925.44;;;;
2019/11/13 08:06:06;;;;;;;14.7;10.1;;;;;;;3.72;85.03613;925.4719;;;;
2019/11/13 08:08:35;;;;;;;16.6;13.3;;;;;;;3.74;84.89355;925.4233;;;;
2019/11/13 08:11:00;;;;;;;14;11.3;;;;;;;3.72;84.65234;925.4127;;;;
2019/11/13 08:16:17;;;;;;;17.2;13.4;;;;;;;3.72;84.83398;925.4341;;;;
2019/11/13 08:18:52;;;;;;;17.5;13.4;;;;;;;3.76;84.89746;925.4677;;;;
2019/11/13 08:21:23;;;;;;;23.2;16.1;;;;;;;3.84;84.48633;925.4691;;;;
2019/11/13 08:23:51;;;;;;;24;17.7;;;;;;;3.89;84.48438;925.4902;;;;
2019/11/13 08:26:27;;;;;;;20.9;16.5;;;;;;;3.92;84.26465;925.5425;;;;
2019/11/13 08:28:54;;;;;;;24.7;17.8;;;;;;;3.94;83.94434;925.5232;;;;
2019/11/13 08:31:25;;;;;;;25.1;18.3;;;;;;;3.96;83.7002;925.5305;;;;
2019/11/13 08:34:16;;;;;;;23.6;18.1;;;;;;;3.93;83.90723;925.5474;;;;
2019/11/13 08:36:48;;;;;;;21.9;16.1;;;;;;;4.04;83.77246;925.5342;;;;
2019/11/13 08:39:13;;;;;;;21.3;16.6;;;;;;;4.01;83.77832;925.4952;;;;
2019/11/13 08:44:05;;;;;;;26.2;19.8;;;;;;;4.01;83.80078;925.5259;;;;
2019/11/13 08:46:32;;;;;;;26.4;19.8;;;;;;;4.07;83.66504;925.507;;;;
2019/11/13 08:49:01;;;;;;;39.2;26.4;;;;;;;4.1;83.44531;925.5547;;;;
2019/11/13 08:51:29;;;;;;;35.5;23.8;;;;;;;4.24;83.18164;925.5519;;;;
2019/11/13 08:54:16;;;;;;;28;20.6;;;;;;;4.35;82.44727;925.4658;;;;
2019/11/13 08:56:49;;;;;;;27.2;18.5;;;;;;;4.33;82.6123;925.497;;;;
2019/11/13 08:59:15;;;;;;;27.9;19.5;;;;;;;4.17;83.06641;925.5035;;;;
2019/11/13 09:01:43;;;;;;;21.9;16.8;;;;;;;4.28;82.69531;925.5517;;;;
2019/11/13 09:06:43;;;;;;;25.6;16.8;;;;;;;4.18;83.32813;925.5273;;;;
2019/11/13 09:09:13;;;;;;;25.9;19;;;;;;;4.31;82.59961;925.5481;;;;
2019/11/13 09:11:44;;;;;;;15.3;12.4;;;;;;;4.38;82.33203;925.6143;;;;
2019/11/13 09:14:09;;;;;;;18.6;14.3;;;;;;;4.41;81.9541;925.5898;;;;
2019/11/13 09:16:48;;;;;;;20.1;15.9;;;;;;;4.43;81.83398;925.5103;;;;
2019/11/13 09:19:12;;;;;;;21.7;15.7;;;;;;;4.37;82.2041;925.6205;;;;
2019/11/13 09:21:51;;;;;;;24.8;18.4;;;;;;;4.47;81.75293;925.6503;;;;
2019/11/13 09:24:20;;;;;;;21.4;15.8;;;;;;;4.55;81.45117;925.5944;;;;
2019/11/13 09:26:59;;;;;;;22;15.7;;;;;;;4.45;82.05176;925.617;;;;
2019/11/13 09:29:27;;;;;;;20.1;14.7;;;;;;;4.41;82.32715;925.6268;;;;
2019/11/13 09:32:05;;;;;;;25.2;17.6;;;;;;;4.44;81.70215;925.6909;;;;
2019/11/13 09:34:42;;;;;;;23.1;16.5;;;;;;;4.34;81.99707;925.7123;;;;
2019/11/13 09:37:23;;;;;;;23.2;16.5;;;;;;;4.39;81.82715;925.8901;;;;
2019/11/13 09:39:56;;;;;;;21.6;15.8;;;;;;;4.36;82.22559;925.8692;;;;
2019/11/13 09:42:27;;;;;;;19.1;14.9;;;;;;;4.34;82.64941;925.8447;;;;
2019/11/13 09:45:08;;;;;;;23.1;15.2;;;;;;;4.33;82.71387;925.8438;;;;
2019/11/13 09:47:40;;;;;;;20.6;14.2;;;;;;;4.33;82.75977;925.8279;;;;
2019/11/13 09:50:05;;;;;;;19.7;14.4;;;;;;;4.44;82.55762;925.8699;;;;
2019/11/13 09:52:37;;;;;;;16.4;13.1;;;;;;;4.57;81.91797;925.8627;;;;
2019/11/13 09:55:07;;;;;;;16.5;12.5;;;;;;;4.58;81.69238;925.873;;;;
2019/11/13 09:57:35;;;;;;;17.5;12.9;;;;;;;4.51;82.18555;925.88;;;;
2019/11/13 10:00:06;;;;;;;18;13.8;;;;;;;4.55;82.27441;925.8388;;;;
2019/11/13 10:02:33;;;;;;;16.2;12.4;;;;;;;4.6;82.19336;925.8314;;;;
2019/11/13 10:05:00;;;;;;;16.7;12.3;;;;;;;4.65;81.79688;925.8047;;;;
2019/11/13 10:07:36;;;;;;;15.8;12.4;;;;;;;4.67;81.73242;925.861;;;;
2019/11/13 10:10:01;;;;;;;16.1;12.5;;;;;;;4.76;81.52637;925.8666;;;;
2019/11/13 10:12:30;;;;;;;14.9;11.2;;;;;;;4.83;80.83984;925.829;;;;
2019/11/13 10:15:03;;;;;;;12.2;10.1;;;;;;;4.75;81.44531;925.8066;;;;
2019/11/13 10:17:38;;;;;;;12.9;11;;;;;;;4.73;81.16992;925.7449;;;;
2019/11/13 10:20:08;;;;;;;12.8;10.4;;;;;;;4.74;80.99316;925.7364;;;;
2019/11/13 10:22:41;;;;;;;12.6;10.8;;;;;;;4.78;80.77344;925.747;;;;
2019/11/13 10:25:14;;;;;;;13.3;11.7;;;;;;;4.87;80.83691;925.693;;;;
2019/11/13 10:27:40;;;;;;;15.5;12.5;;;;;;;4.93;80.43066;925.7449;;;;
2019/11/13 10:30:11;;;;;;;17.1;13.3;;;;;;;4.94;80.27637;925.7781;;;;
2019/11/13 10:32:44;;;;;;;16.6;14.8;;;;;;;4.98;80.31641;925.7225;;;;
2019/11/13 10:35:18;;;;;;;16.2;13.7;;;;;;;4.98;80.16992;925.6799;;;;
2019/11/13 10:37:48;;;;;;;14.8;12.3;;;;;;;5;80.44531;925.7101;;;;
2019/11/13 10:40:13;;;;;;;14.8;13;;;;;;;5;80.07227;925.7573;;;;
2019/11/13 10:42:40;;;;;;;15.3;12.5;;;;;;;5.04;79.64063;925.6201;;;;
2019/11/13 10:45:06;;;;;;;13.5;11.4;;;;;;;5.08;79.39941;925.6945;;;;
2019/11/13 10:47:32;;;;;;;13;10.4;;;;;;;5.12;79.23926;925.6785;;;;
2019/11/13 10:49:59;;;;;;;10.4;8.6;;;;;;;5.18;78.75293;925.6465;;;;
2019/11/13 10:52:23;;;;;;;11.1;8.9;;;;;;;5.21;78.94922;925.6653;;;;
2019/11/13 10:54:50;;;;;;;11.6;9.4;;;;;;;5.25;79.19336;925.653;;;;
2019/11/13 10:57:22;;;;;;;12;9.8;;;;;;;5.27;78.96289;925.6255;;;;
2019/11/13 10:59:45;;;;;;;11.1;9.3;;;;;;;5.31;79.0918;925.6866;;;;
2019/11/13 11:02:13;;;;;;;13.4;10.9;;;;;;;5.16;79.92188;925.6117;;;;
2019/11/13 11:04:40;;;;;;;13.7;11.2;;;;;;;5.28;79.43652;925.6556;;;;
2019/11/13 11:07:05;;;;;;;11.9;9.5;;;;;;;5.36;79.10156;925.6208;;;;
2019/11/13 11:09:35;;;;;;;10.6;9.4;;;;;;;5.48;78.86621;925.6575;;;;
2019/11/13 11:11:55;;;;;;;10.5;9.3;;;;;;;5.53;78.10645;925.7037;;;;
2019/11/13 11:14:23;;;;;;;13.2;9.9;;;;;;;5.45;78.23828;925.6841;;;;
2019/11/13 11:16:53;;;;;;;12.6;10.2;;;;;;;5.54;78.01855;925.6501;;;;
2019/11/13 11:19:25;;;;;;;11.5;10.2;;;;;;;5.64;78.00195;925.6811;;;;
2019/11/13 11:21:50;;;;;;;11;9.6;;;;;;;5.68;78.54102;925.683;;;;
2019/11/13 11:24:15;;;;;;;11.4;9.7;;;;;;;5.82;77.62891;925.5974;;;;
2019/11/13 11:26:50;;;;;;;15;11;;;;;;;5.84;77.62109;925.6267;;;;
2019/11/13 11:29:15;;;;;;;14.8;11.3;;;;;;;5.93;77.8291;925.5541;;;;
2019/11/13 11:31:41;;;;;;;13.9;10.9;;;;;;;6.14;77.71973;925.5982;;;;
2019/11/13 11:34:14;;;;;;;12.4;8.9;;;;;;;6.3;76.28027;925.6199;;;;
2019/11/13 11:36:46;;;;;;;12.7;10.7;;;;;;;6.47;74.41016;925.575;;;;
2019/11/13 11:39:14;;;;;;;12.6;10.1;;;;;;;6.53;75.38281;925.4661;;;;
2019/11/13 11:41:40;;;;;;;14.1;10.7;;;;;;;6.6;74.89648;925.5739;;;;
2019/11/13 11:44:04;;;;;;;13.2;10.8;;;;;;;6.76;74.23438;925.6057;;;;
2019/11/13 11:46:30;;;;;;;12.5;10.4;;;;;;;6.8;74.13965;925.574;;;;
2019/11/13 11:48:58;;;;;;;14.6;10.7;;;;;;;6.74;74.23047;925.6039;;;;
2019/11/13 11:51:33;;;;;;;13.8;11.7;;;;;;;6.66;74.27344;925.6275;;;;
2019/11/13 11:53:51;;;;;;;15;11.6;;;;;;;6.61;75.21484;925.593;;;;
2019/11/13 11:58:55;;;;;;;17.9;13.8;;;;;;;6.33;76.16016;925.7085;;;;
2019/11/13 12:01:23;;;;;;;14.1;11.4;;;;;;;6.08;77.62988;925.707;;;;
2019/11/13 12:03:47;;;;;;;12.4;9.5;;;;;;;6.03;77.03516;925.6964;;;;
2019/11/13 12:06:16;;;;;;;12.4;11.1;;;;;;;5.89;78.11621;925.6989;;;;
2019/11/13 12:08:40;;;;;;;10.9;9.1;;;;;;;5.68;78.50586;925.728;;;;
2019/11/13 12:11:04;;;;;;;20.2;17.1;;;;;;;5.53;79.66406;925.7029;;;;
2019/11/13 12:13:39;;;;;;;10.8;9.7;;;;;;;5.46;79.30078;925.7916;;;;
2019/11/13 12:16:03;;;;;;;13.2;11.6;;;;;;;5.41;80.53223;925.7122;;;;
2019/11/13 12:18:35;;;;;;;20.4;17.4;;;;;;;5.13;80.31152;925.7597;;;;
2019/11/13 12:21:16;;;;;;;20.3;17.8;;;;;;;5.07;81.33691;925.823;;;;
2019/11/13 12:23:38;;;;;;;17.1;15.1;;;;;;;4.8;81.92773;925.8552;;;;
2019/11/13 12:26:08;;;;;;;18.3;15.4;;;;;;;4.82;82.4834;925.8715;;;;
2019/11/13 12:28:41;;;;;;;15.3;12.3;;;;;;;4.87;82.02246;925.8365;;;;
2019/11/13 12:31:03;;;;;;;12.4;10.1;;;;;;;4.9;81.98047;925.8361;;;;
2019/11/13 12:33:35;;;;;;;14.1;11.5;;;;;;;4.97;82.44336;925.8059;;;;
2019/11/13 12:36:04;;;;;;;10.8;9.4;;;;;;;5.18;82.23926;925.7681;;;;
2019/11/13 12:38:36;;;;;;;8.6;7.6;;;;;;;5.28;81.89551;925.6864;;;;
2019/11/13 12:41:05;;;;;;;8.7;6.2;;;;;;;5.28;81.16211;925.7455;;;;
2019/11/13 12:43:32;;;;;;;7.4;6.6;;;;;;;5.32;80.74219;925.7806;;;;
2019/11/13 12:46:03;;;;;;;7.4;6.1;;;;;;;5.33;81.31934;925.8186;;;;
2019/11/13 12:48:35;;;;;;;6.7;5.8;;;;;;;5.35;80.96191;925.8953;;;;
2019/11/13 12:51:07;;;;;;;8.7;6.8;;;;;;;5.24;79.87891;925.9291;;;;
2019/11/13 12:53:37;;;;;;;8.7;7.2;;;;;;;4.89;81.57324;925.9133;;;;
2019/11/13 12:56:04;;;;;;;6.8;5.6;;;;;;;4.89;81.37207;925.8762;;;;
2019/11/13 12:58:38;;;;;;;9.2;6.1;;;;;;;5.02;82.25098;925.8028;;;;
2019/11/13 13:01:09;;;;;;;7.5;5.4;;;;;;;5.09;81.79102;925.8201;;;;
2019/11/13 13:03:39;;;;;;;8.3;6.3;;;;;;;5.09;81.67871;925.8217;;;;
2019/11/13 13:06:13;;;;;;;6.6;5.4;;;;;;;5.1;81.95313;925.7935;;;;
2019/11/13 13:08:40;;;;;;;5.7;4.3;;;;;;;5.13;82.03711;925.8236;;;;
2019/11/13 13:11:22;;;;;;;5.1;3.8;;;;;;;5.14;82.02539;925.8513;;;;
2019/11/13 13:13:57;;;;;;;6.2;4.9;;;;;;;5.19;81.8457;925.8179;;;;
2019/11/13 13:16:25;;;;;;;8;6.4;;;;;;;5.17;82.06641;925.8438;;;;
2019/11/13 13:18:50;;;;;;;10;7.5;;;;;;;5.28;81.29785;925.7645;;;;
2019/11/13 13:21:14;;;;;;;9.6;7.8;;;;;;;5.39;80.60742;925.733;;;;
2019/11/13 13:23:45;;;;;;;10.3;8.1;;;;;;;5.45;80.13574;925.7497;;;;
2019/11/13 13:26:17;;;;;;;7.5;6.7;;;;;;;5.51;80.74414;925.8148;;;;
2019/11/13 13:28:49;;;;;;;7.1;6;;;;;;;5.52;80.49805;925.8458;;;;
2019/11/13 13:31:23;;;;;;;8.4;6.1;;;;;;;5.59;79.83398;925.7784;;;;
2019/11/13 13:33:47;;;;;;;8.1;5.9;;;;;;;5.6;80.0957;925.8156;;;;
2019/11/13 13:36:29;;;;;;;7.5;5.7;;;;;;;5.44;80.30176;925.9177;;;;
2019/11/13 13:39:03;;;;;;;16.7;12.5;;;;;;;5.21;81.29492;925.9627;;;;
2019/11/13 13:41:24;;;;;;;13.2;10;;;;;;;5.09;82.03906;925.981;;;;
2019/11/13 13:43:59;;;;;;;12.8;9.8;;;;;;;5.04;82.13086;926.0483;;;;
2019/11/13 13:46:22;;;;;;;12.7;9.1;;;;;;;5.1;82.28906;926.1216;;;;
2019/11/13 13:48:51;;;;;;;12.2;8.9;;;;;;;5.12;82.0127;926.1636;;;;
2019/11/13 13:51:17;;;;;;;13.7;8.9;;;;;;;5.25;81.70996;926.2488;;;;
2019/11/13 13:53:51;;;;;;;16.3;11.6;;;;;;;5.27;81.61133;926.2388;;;;
2019/11/13 13:56:23;;;;;;;21.7;17.4;;;;;;;5.28;81.55664;926.2648;;;;
2019/11/13 13:58:46;;;;;;;23.6;18.3;;;;;;;5.31;81.89063;926.2509;;;;
2019/11/13 14:01:20;;;;;;;24;17.7;;;;;;;5.34;82.48242;926.2852;;;;
2019/11/13 14:03:55;;;;;;;18;13.6;;;;;;;5.18;83.00586;926.2194;;;;
2019/11/13 14:06:28;;;;;;;19.3;15.3;;;;;;;5.25;82.26074;926.1958;;;;
2019/11/13 14:08:54;;;;;;;12.6;9.5;;;;;;;5.33;81.75879;926.2913;;;;
2019/11/13 14:11:20;;;;;;;16.5;10.9;;;;;;;5.25;81.82031;926.3442;;;;
2019/11/13 14:13:48;;;;;;;18.6;13.2;;;;;;;5.24;82.33789;926.3441;;;;
2019/11/13 14:16:20;;;;;;;12.5;9.9;;;;;;;5.21;82.18555;926.3059;;;;
2019/11/13 14:18:45;;;;;;;11.5;9.4;;;;;;;5.16;82.58301;926.3075;;;;
2019/11/13 14:21:16;;;;;;;11.2;8.9;;;;;;;5.17;82.87793;926.3794;;;;
2019/11/13 14:23:50;;;;;;;13.9;10.6;;;;;;;5.18;82.45117;926.4545;;;;
2019/11/13 14:26:19;;;;;;;13;10.6;;;;;;;5.11;82.50488;926.4553;;;;
2019/11/13 14:28:52;;;;;;;12.5;10.4;;;;;;;5.02;82.70313;926.4512;;;;
2019/11/13 14:31:19;;;;;;;14.4;10.6;;;;;;;5.02;82.97363;926.4339;;;;
2019/11/13 14:33:48;;;;;;;3.7;2.6;;;;;;;5.04;83.61816;926.4838;;;;
2019/11/13 14:36:11;;;;;;;5;2.7;;;;;;;4.99;83.99121;926.3803;;;;
2019/11/13 14:38:36;;;;;;;6.4;3.9;;;;;;;;;;;;;
2019/11/13 14:41:03;;;;;;;6.3;3.9;;;;;;;;;;;;;
2019/11/13 14:43:29;;;;;;;8.8;5.9;;;;;;;;;;;;;
2019/11/13 14:48:27;;;;;;;16.7;12.5;;;;;;;;;;;;;
2019/11/13 14:50:50;;;;;;;16.2;11.1;;;;;;;;;;;;;
2019/11/13 14:53:23;;;;;;;20;14.1;;;;;;;;;;;;;
2019/11/13 14:55:56;;;;;;;16.3;11.1;;;;;;;;;;;;;
2019/11/13 14:58:24;;;;;;;12;7.6;;;;;;;;;;;;;
2019/11/13 15:00:49;;;;;;;11.3;7;;;;;;;;;;;;;
2019/11/13 15:03:16;;;;;;;11.2;6.5;;;;;;;;;;;;;
2019/11/13 15:05:50;;;;;;;12.5;6.7;;;;;;;;;;;;;
2019/11/13 15:09:13;;;;;;;12.4;6.9;;;;;;;;;;;;;
2019/11/13 15:10:47;;;;;;;16.5;8.6;;;;;;;;;;;;;
2019/11/13 15:13:10;;;;;;;15.7;9;;;;;;;;;;;;;
2019/11/13 15:15:43;;;;;;;12.9;7.7;;;;;;;;;;;;;
2019/11/13 15:18:15;;;;;;;12.3;6.8;;;;;;;;;;;;;
2019/11/13 15:20:49;;;;;;;14.7;8;;;;;;;;;;;;;
2019/11/13 15:23:18;;;;;;;15.4;9.5;;;;;;;;;;;;;
2019/11/13 15:25:42;;;;;;;15.8;9.4;;;;;;;;;;;;;
2019/11/13 15:28:14;;;;;;;14.1;8.5;;;;;;;;;;;;;
2019/11/13 15:30:38;;;;;;;13.1;8.4;;;;;;;;;;;;;
2019/11/13 15:33:02;;;;;;;14.3;10.7;;;;;;;;;;;;;
2019/11/13 15:35:31;;;;;;;17.8;11.5;;;;;;;;;;;;;
2019/11/13 15:37:58;;;;;;;16.2;10.6;;;;;;;;;;;;;
2019/11/13 15:40:35;;;;;;;17.2;10.1;;;;;;;;;;;;;
2019/11/13 15:43:00;;;;;;;11.2;7;;;;;;;;;;;;;
2019/11/13 15:45:24;;;;;;;9.2;6.3;;;;;;;;;;;;;
2019/11/13 15:48:00;;;;;;;9.5;5.5;;;;;;;;;;;;;
2019/11/13 15:50:38;;;;;;;7.7;5.6;;;;;;;;;;;;;
2019/11/13 15:52:53;;;;;;;11.7;8.3;;;;;;;;;;;;;
2019/11/13 15:55:28;;;;;;;13.4;8.7;;;;;;;;;;;;;
2019/11/13 15:57:46;;;;;;;16.1;11.7;;;;;;;;;;;;;
2019/11/13 16:00:12;;;;;;;17.3;12.3;;;;;;;;;;;;;
2019/11/13 16:02:36;;;;;;;20.4;12.9;;;;;;;;;;;;;
2019/11/13 16:05:01;;;;;;;20.9;14.9;;;;;;;;;;;;;
2019/11/13 16:07:29;;;;;;;18.7;13.7;;;;;;;;;;;;;
2019/11/13 16:09:53;;;;;;;14.9;10.6;;;;;;;;;;;;;
2019/11/13 16:12:21;;;;;;;16.5;11.8;;;;;;;;;;;;;
2019/11/13 16:15:08;;;;;;;13.5;8.9;;;;;;;;;;;;;
2019/11/13 16:17:14;;;;;;;8.9;6.1;;;;;;;;;;;;;
2019/11/13 16:19:46;;;;;;;5.6;3.8;;;;;;;;;;;;;
2019/11/13 16:22:13;;;;;;;8.8;5.3;;;;;;;;;;;;;
2019/11/13 16:24:39;;;;;;;11.4;8.2;;;;;;;;;;;;;
2019/11/13 16:27:00;;;;;;;16.5;13.1;;;;;;;;;;;;;